»·PEaware :: N196EC KSBA-KSNA

N196EC :: KSBA-KSNA

FLIGHT INFORMATION

Flight Status: Arrived
Operator: Privately registered:
United States
More flights under this callsign
Pilot: Adrián R. (20842)
Aircraft: AERMACCHI WARRIOR
(F260)
More flights by this aircraft type
Origin: KSBA Santa Barbara Mun
United States
Destination: KSNA John Wayne-Orange Co
United States
More flights between these airports :: More routes between these airports
Route: KWANG CMA VNY V186 BAYJY V363 POXKU V8 SLI
File this flight plan on PilotEdge
Remarks:
Altitude:
(Current/Filed)
5,000ft
Speed:
(Current/Filed)
155kts
Departed: 02-Dec-18 09:47 AM
Arrived: 02-Dec-18 10:42 AM
Distance/Time
Traveled:
108nm/0:55
Distance/Time
To Go:
Arrived

Flight Plot

Page will automatically refresh every two minutes.


Map Options




Map Legend


Flown Route
Filed Route
Departure Airport
Arrival Airport
Navaid (VOR, NDB)
Fix

Horizontal Profiles

Position Reports

Time Latitude Longitude Heading Altitude Ground
Speed
02-Dec-18 09:23 34.423079 -119.836090 161 16ft 0kts
02-Dec-18 09:24 34.423079 -119.836090 161 16ft 0kts
02-Dec-18 09:25 34.423079 -119.836090 161 16ft 0kts
02-Dec-18 09:26 34.423079 -119.836090 161 16ft 0kts
02-Dec-18 09:27 34.423079 -119.836090 161 16ft 0kts
02-Dec-18 09:28 34.423079 -119.836090 161 16ft 0kts
02-Dec-18 09:29 34.423079 -119.836090 161 16ft 0kts
02-Dec-18 09:30 34.423079 -119.836090 161 16ft 0kts
02-Dec-18 09:31 34.423079 -119.836090 161 16ft 0kts
02-Dec-18 09:32 34.423079 -119.836090 161 16ft 0kts
02-Dec-18 09:33 34.423079 -119.836090 161 16ft 0kts
02-Dec-18 09:34 34.423079 -119.836090 161 16ft 0kts
02-Dec-18 09:35 34.423079 -119.836090 161 16ft 0kts
02-Dec-18 09:36 34.423079 -119.836090 161 16ft 0kts
02-Dec-18 09:37 34.423079 -119.836090 161 16ft 0kts
02-Dec-18 09:38 34.423079 -119.836090 161 16ft 0kts
02-Dec-18 09:39 34.423079 -119.836090 161 16ft 0kts
02-Dec-18 09:40 34.423079 -119.836090 161 16ft 0kts
02-Dec-18 09:41 34.423036 -119.836084 186 16ft 1kts
02-Dec-18 09:42 34.423415 -119.837380 347 16ft 11kts
02-Dec-18 09:43 34.427409 -119.838580 344 16ft 16kts
02-Dec-18 09:44 34.430829 -119.839793 225 16ft 0kts
02-Dec-18 09:45 34.430829 -119.839793 224 16ft 0kts
02-Dec-18 09:46 34.430829 -119.839793 224 16ft 0kts
02-Dec-18 09:47 34.430829 -119.839793 224 16ft 0kts
02-Dec-18 09:48 34.430829 -119.839793 224 16ft 0kts
02-Dec-18 09:49 34.430232 -119.840230 166 16ft 17kts
02-Dec-18 09:50 34.411112 -119.833738 162 584ft 114kts
02-Dec-18 09:51 34.374782 -119.821659 163 2052ft 115kts
02-Dec-18 09:52 34.348930 -119.813245 163 2941ft 121kts
02-Dec-18 09:53 34.303688 -119.798914 164 3003ft 155kts
02-Dec-18 09:54 34.286001 -119.761299 78 3486ft 138kts
02-Dec-18 09:55 34.288979 -119.717672 83 4459ft 125kts
02-Dec-18 09:56 34.288641 -119.682624 84 5008ft 138kts
02-Dec-18 09:57 34.286118 -119.624418 87 4999ft 148kts
02-Dec-18 09:58 34.284051 -119.583518 86 5000ft 145kts
02-Dec-18 09:59 34.281182 -119.526348 86 5001ft 146kts
02-Dec-18 10:00 34.279089 -119.485456 86 5000ft 146kts
02-Dec-18 10:01 34.276567 -119.436531 86 5000ft 145kts
02-Dec-18 10:02 34.274039 -119.387844 86 5000ft 145kts
02-Dec-18 10:03 34.271527 -119.340575 88 4997ft 146kts
02-Dec-18 10:04 34.269240 -119.300891 87 4973ft 147kts
02-Dec-18 10:05 34.266585 -119.252367 87 4984ft 143kts
02-Dec-18 10:06 34.264063 -119.204974 87 5001ft 142kts
02-Dec-18 10:07 34.261503 -119.157433 87 5000ft 141kts
02-Dec-18 10:08 34.258915 -119.108997 88 5002ft 147kts
02-Dec-18 10:09 34.256166 -119.058923 88 5000ft 149kts
02-Dec-18 10:10 34.253417 -119.009251 88 5000ft 149kts
02-Dec-18 10:11 34.250638 -118.959096 88 5000ft 149kts
02-Dec-18 10:12 34.247895 -118.909974 88 5000ft 149kts
02-Dec-18 10:13 34.245078 -118.859885 88 5000ft 149kts
02-Dec-18 10:14 34.242244 -118.809862 88 5000ft 149kts
02-Dec-18 10:15 34.239367 -118.759830 87 4994ft 150kts
02-Dec-18 10:16 34.236432 -118.709003 87 4984ft 153kts
02-Dec-18 10:17 34.233432 -118.656993 86 4978ft 157kts
02-Dec-18 10:18 34.230295 -118.603517 87 4966ft 162kts
02-Dec-18 10:19 34.227172 -118.550868 86 4963ft 167kts
02-Dec-18 10:20 34.224013 -118.494828 85 4956ft 168kts
02-Dec-18 10:21 34.207800 -118.440627 103 4955ft 172kts
02-Dec-18 10:22 34.191749 -118.386584 104 4957ft 171kts
02-Dec-18 10:23 34.176541 -118.336565 105 4955ft 171kts
02-Dec-18 10:24 34.161477 -118.287394 105 4957ft 169kts
02-Dec-18 10:25 34.145362 -118.234776 105 4961ft 167kts
02-Dec-18 10:26 34.129628 -118.183315 105 4965ft 165kts
02-Dec-18 10:27 34.113871 -118.131839 105 4969ft 164kts
02-Dec-18 10:28 34.098149 -118.080574 106 4973ft 162kts
02-Dec-18 10:29 34.082542 -118.029846 106 4970ft 161kts
02-Dec-18 10:30 34.066963 -117.979301 106 4965ft 161kts
02-Dec-18 10:31 34.051422 -117.928916 105 4960ft 160kts
02-Dec-18 10:32 34.035942 -117.878776 105 4955ft 159kts
02-Dec-18 10:33 34.021183 -117.829221 104 4952ft 157kts
02-Dec-18 10:34 34.002946 -117.783033 146 4947ft 163kts
02-Dec-18 10:35 33.957265 -117.782955 176 4951ft 165kts
02-Dec-18 10:36 33.912409 -117.783214 174 4947ft 159kts
02-Dec-18 10:37 33.871599 -117.782816 180 4945ft 162kts
02-Dec-18 10:38 33.843479 -117.820394 255 4950ft 163kts
02-Dec-18 10:39 33.830079 -117.872055 252 4947ft 163kts
02-Dec-18 10:40 33.791361 -117.872295 131 4352ft 174kts
02-Dec-18 10:41 33.758371 -117.830983 131 3410ft 164kts
02-Dec-18 10:42 33.724979 -117.819236 248 2016ft 136kts
02-Dec-18 10:43 33.705516 -117.847941 207 713ft 89kts
02-Dec-18 10:44 33.684339 -117.861466 208 150ft 84kts
02-Dec-18 10:45 33.673882 -117.867536 112 59ft 0kts
02-Dec-18 10:46 33.673882 -117.867536 112 59ft 0kts
02-Dec-18 10:47 33.672669 -117.866321 56 59ft 4kts
02-Dec-18 10:48 33.672724 -117.866360 237 59ft 0kts
02-Dec-18 10:49 33.672724 -117.866360 237 59ft 0kts
02-Dec-18 10:50 33.672724 -117.866360 237 59ft 0kts
02-Dec-18 10:51 33.672724 -117.866360 237 59ft 0kts
02-Dec-18 10:52 33.672724 -117.866360 237 59ft 0kts
02-Dec-18 10:53 33.672724 -117.866360 237 59ft 0kts
02-Dec-18 10:54 33.672724 -117.866360 237 59ft 0kts
02-Dec-18 10:55 33.672724 -117.866360 237 59ft 0kts
02-Dec-18 10:56 33.672724 -117.866360 237 59ft 0kts
02-Dec-18 10:57 33.672724 -117.866360 237 59ft 0kts
02-Dec-18 10:58 33.672724 -117.866360 237 59ft 0kts
02-Dec-18 10:59 33.672724 -117.866360 237 59ft 0kts

Navigation Log

Ident Type
Flight plan parsing failed, navigation log unavailable